createdAt,value
2022-08-08T00:02:02.956Z,89.40
2022-08-08T00:04:19.866Z,89.80
2022-08-08T00:07:09.104Z,90.00
2022-08-08T00:09:39.694Z,90.10
2022-08-08T00:12:12.319Z,90.30
2022-08-08T00:15:01.037Z,90.70
2022-08-08T00:18:02.117Z,90.70
2022-08-08T00:20:19.592Z,90.60
2022-08-08T00:22:49.798Z,90.40
2022-08-08T00:25:25.286Z,90.20
2022-08-08T00:27:59.722Z,90.20
2022-08-08T00:30:36.563Z,90.30
2022-08-08T00:33:10.677Z,90.30
2022-08-08T00:35:55.071Z,90.50
2022-08-08T00:38:54.435Z,90.70
2022-08-08T00:41:21.939Z,90.70
2022-08-08T00:44:07.047Z,90.70
2022-08-08T00:46:57.548Z,90.70
2022-08-08T00:49:33.274Z,91.00
2022-08-08T00:52:22.262Z,91.20
2022-08-08T00:55:11.307Z,91.00
2022-08-08T00:58:05.650Z,91.00
2022-08-08T01:00:50.461Z,91.00
2022-08-08T01:04:01.600Z,90.90
2022-08-08T01:06:27.556Z,90.80
2022-08-08T01:09:36.885Z,90.70
2022-08-08T01:11:52.017Z,90.90
2022-08-08T01:14:54.950Z,91.60
2022-08-08T01:17:34.861Z,91.80
2022-08-08T01:20:06.393Z,91.30
2022-08-08T01:23:03.184Z,91.00
2022-08-08T01:25:54.456Z,91.40
2022-08-08T01:29:02.428Z,91.40
2022-08-08T01:32:06.488Z,91.10
2022-08-08T01:34:57.655Z,91.30
2022-08-08T01:37:58.536Z,91.70
2022-08-08T01:40:32.490Z,91.80
2022-08-08T01:43:19.183Z,92.10
2022-08-08T01:46:27.201Z,92.00
2022-08-08T01:49:23.453Z,92.30
2022-08-08T01:52:42.805Z,92.30
2022-08-08T01:55:25.397Z,92.60
2022-08-08T01:58:11.262Z,92.60
2022-08-08T02:00:34.715Z,92.40
2022-08-08T02:03:54.851Z,92.50
2022-08-08T02:06:07.350Z,92.60
2022-08-08T02:08:47.386Z,92.70
2022-08-08T02:11:53.218Z,92.80
2022-08-08T02:14:28.211Z,92.80
2022-08-08T02:17:10.763Z,92.80
2022-08-08T02:20:09.274Z,92.70
2022-08-08T02:22:54.645Z,92.90
2022-08-08T02:26:00.518Z,92.70
2022-08-08T02:28:51.614Z,93.00
2022-08-08T02:31:58.167Z,93.20
2022-08-08T02:34:14.973Z,93.40
2022-08-08T02:37:51.338Z,93.60
2022-08-08T02:40:00.218Z,93.80
2022-08-08T02:42:41.964Z,93.90
2022-08-08T02:45:27.416Z,93.90
2022-08-08T02:48:26.200Z,94.10
2022-08-08T02:51:30.568Z,94.90
2022-08-08T02:54:27.935Z,95.20
2022-08-08T02:57:17.054Z,95.20
2022-08-08T03:00:31.736Z,95.40
2022-08-08T03:03:02.680Z,95.40
2022-08-08T03:05:55.760Z,95.60
2022-08-08T03:09:01.874Z,95.50
2022-08-08T03:12:05.778Z,95.60
2022-08-08T03:15:58.109Z,95.50
2022-08-08T03:17:34.098Z,95.80
2022-08-08T03:20:07.965Z,96.00
2022-08-08T03:22:57.140Z,96.70
2022-08-08T03:25:36.154Z,97.00
2022-08-08T03:28:09.753Z,97.30
2022-08-08T03:30:39.760Z,97.00
2022-08-08T03:33:56.712Z,97.50
2022-08-08T03:35:51.952Z,97.40
2022-08-08T03:38:58.345Z,97.60
2022-08-08T03:40:56.948Z,97.40
2022-08-08T03:43:38.511Z,97.40
2022-08-08T03:46:09.230Z,97.40
2022-08-08T03:49:56.840Z,97.40
2022-08-08T03:51:11.603Z,97.30
2022-08-08T03:53:47.704Z,97.50
2022-08-08T03:56:31.306Z,97.80
2022-08-08T03:58:53.123Z,97.80
2022-08-08T04:01:24.222Z,98.10
2022-08-08T04:03:57.878Z,98.50
2022-08-08T04:06:29.718Z,99.10
2022-08-08T04:08:57.889Z,99.20
2022-08-08T04:11:27.962Z,99.30
2022-08-08T04:14:03.919Z,99.10
2022-08-08T04:16:38.842Z,99.20
2022-08-08T04:19:02.812Z,99.40
2022-08-08T04:21:41.288Z,99.10
2022-08-08T04:24:05.279Z,99.10
2022-08-08T04:26:45.302Z,99.00
2022-08-08T04:29:06.739Z,98.90
2022-08-08T04:31:59.216Z,99.10
2022-08-08T04:34:09.747Z,99.00
2022-08-08T04:36:41.298Z,99.30
2022-08-08T04:40:03.272Z,99.70
2022-08-08T04:41:42.414Z,99.50
2022-08-08T04:44:11.983Z,99.70
2022-08-08T04:46:42.394Z,99.70
2022-08-08T04:49:13.114Z,99.90
2022-08-08T04:51:57.303Z,99.90
2022-08-08T04:54:39.242Z,99.90
2022-08-08T04:56:46.614Z,99.90
2022-08-08T04:59:16.369Z,99.90
2022-08-08T05:01:48.164Z,99.90
2022-08-08T05:04:17.762Z,99.90
2022-08-08T05:06:50.493Z,99.90
2022-08-08T05:09:19.912Z,99.90
2022-08-08T05:11:56.775Z,99.90
2022-08-08T05:14:21.097Z,99.90
2022-08-08T05:17:00.907Z,99.90
2022-08-08T05:20:12.463Z,99.90
2022-08-08T05:21:58.038Z,99.90
2022-08-08T05:24:28.435Z,99.90
2022-08-08T05:27:00.356Z,99.90
2022-08-08T05:29:30.583Z,99.90
2022-08-08T05:32:04.492Z,99.90
2022-08-08T05:34:37.752Z,99.90
2022-08-08T05:37:17.138Z,99.90
2022-08-08T05:39:44.065Z,99.90
2022-08-08T05:42:15.508Z,99.90
2022-08-08T05:44:49.020Z,99.90
2022-08-08T05:47:22.738Z,99.90
2022-08-08T05:49:55.814Z,99.90
2022-08-08T05:52:35.538Z,99.90
2022-08-08T05:55:02.295Z,99.90
2022-08-08T05:57:57.577Z,99.90
2022-08-08T06:00:19.729Z,99.90
2022-08-08T06:02:55.441Z,99.90
2022-08-08T06:05:34.816Z,99.90
2022-08-08T06:08:09.384Z,99.90
2022-08-08T06:10:38.445Z,99.90
2022-08-08T06:13:09.144Z,99.90
2022-08-08T06:15:51.228Z,99.90
2022-08-08T06:18:20.320Z,99.90
2022-08-08T06:20:45.774Z,99.90
2022-08-08T06:23:17.012Z,99.90
2022-08-08T06:26:38.413Z,99.90
2022-08-08T06:28:29.389Z,99.90
2022-08-08T06:31:05.184Z,99.90
2022-08-08T06:34:26.933Z,99.90
2022-08-08T06:36:13.143Z,99.90
2022-08-08T06:38:47.158Z,99.90
2022-08-08T06:41:19.612Z,99.90
2022-08-08T06:43:57.148Z,99.90
2022-08-08T06:46:26.171Z,99.90
2022-08-08T06:48:57.901Z,99.90
2022-08-08T06:51:31.434Z,99.90
2022-08-08T06:54:03.232Z,99.90
2022-08-08T06:56:39.377Z,99.30
2022-08-08T06:59:12.384Z,99.30
2022-08-08T07:02:16.257Z,98.90
2022-08-08T07:04:47.863Z,98.30
2022-08-08T07:07:25.164Z,98.00
2022-08-08T07:10:08.303Z,97.80
2022-08-08T07:12:47.447Z,97.70
2022-08-08T07:15:31.853Z,97.20
2022-08-08T07:18:00.784Z,96.50
2022-08-08T07:20:26.604Z,96.40
2022-08-08T07:23:23.403Z,96.00
2022-08-08T07:25:54.497Z,95.60
2022-08-08T07:28:31.771Z,94.80
2022-08-08T07:31:00.059Z,95.40
2022-08-08T07:33:38.041Z,94.90
2022-08-08T07:36:05.241Z,94.70
2022-08-08T07:38:38.427Z,94.30
2022-08-08T07:41:16.713Z,94.00
2022-08-08T07:43:53.492Z,93.30
2022-08-08T07:46:23.616Z,92.70
2022-08-08T07:48:47.846Z,92.80
2022-08-08T07:51:23.683Z,92.60
2022-08-08T07:54:27.783Z,92.70
2022-08-08T07:57:08.806Z,92.60
2022-08-08T07:59:39.814Z,92.90
2022-08-08T08:02:36.671Z,91.80
2022-08-08T08:04:49.430Z,91.40
2022-08-08T08:10:38.539Z,91.50
2022-08-08T08:13:25.875Z,92.00
2022-08-08T08:16:04.702Z,91.10
2022-08-08T08:18:52.211Z,90.50
2022-08-08T08:21:14.629Z,90.70
2022-08-08T08:23:43.369Z,90.40
2022-08-08T08:26:27.293Z,90.50
2022-08-08T08:28:49.871Z,90.10
2022-08-08T08:31:20.829Z,89.90
2022-08-08T08:33:50.718Z,89.30
2022-08-08T08:36:22.310Z,90.40
2022-08-08T08:38:54.550Z,89.90
2022-08-08T08:41:31.153Z,89.00
2022-08-08T08:44:13.955Z,87.60
2022-08-08T08:46:33.203Z,86.90
2022-08-08T08:49:04.773Z,87.20
2022-08-08T08:51:38.710Z,85.70
2022-08-08T08:54:13.090Z,86.60
2022-08-08T08:56:43.455Z,86.10
2022-08-08T08:59:23.561Z,86.60
2022-08-08T09:01:56.571Z,86.40
2022-08-08T09:04:39.615Z,84.90
2022-08-08T09:07:12.146Z,84.00
2022-08-08T09:09:47.400Z,83.50
2022-08-08T09:12:11.679Z,85.10
2022-08-08T09:14:46.987Z,84.60
2022-08-08T09:17:23.722Z,84.80
2022-08-08T09:22:00.702Z,84.90
2022-08-08T09:22:31.590Z,83.70
2022-08-08T09:25:01.342Z,83.50
2022-08-08T09:27:56.811Z,83.10
2022-08-08T09:30:06.528Z,82.50
2022-08-08T09:33:54.729Z,82.10
2022-08-08T09:35:32.286Z,81.00
2022-08-08T09:38:06.263Z,79.70
2022-08-08T09:40:46.497Z,80.30
2022-08-08T09:43:16.654Z,79.40
2022-08-08T09:45:55.246Z,79.70
2022-08-08T09:48:32.435Z,81.00
2022-08-08T09:50:58.086Z,79.40
2022-08-08T09:54:01.335Z,79.40
2022-08-08T09:56:06.910Z,78.00
2022-08-08T09:58:44.600Z,79.70
2022-08-08T10:01:14.224Z,80.20
2022-08-08T10:03:46.971Z,78.70
2022-08-08T10:06:21.565Z,79.70
2022-08-08T10:08:54.618Z,78.70
2022-08-08T10:12:27.102Z,78.00
2022-08-08T10:14:01.999Z,76.80
2022-08-08T10:16:41.136Z,77.00
2022-08-08T10:19:12.154Z,76.50
2022-08-08T10:21:50.137Z,76.50
2022-08-08T10:24:29.195Z,76.10
2022-08-08T10:26:59.866Z,76.70
2022-08-08T10:29:58.285Z,77.60
2022-08-08T10:32:40.177Z,77.10
2022-08-08T10:36:01.990Z,76.80
2022-08-08T10:37:54.197Z,77.20
2022-08-08T10:40:25.919Z,75.90
2022-08-08T10:43:00.138Z,77.20
2022-08-08T10:45:41.165Z,75.90
2022-08-08T10:48:03.123Z,77.20
2022-08-08T10:50:37.645Z,75.70
2022-08-08T10:53:12.496Z,75.80
2022-08-08T10:55:46.462Z,76.50
2022-08-08T10:58:13.740Z,75.20
2022-08-08T11:00:53.063Z,72.90
2022-08-08T11:03:37.096Z,75.70
2022-08-08T11:06:00.442Z,75.80
2022-08-08T11:08:38.332Z,75.10
2022-08-08T11:11:32.337Z,74.30
2022-08-08T11:13:51.985Z,72.70
2022-08-08T11:16:32.400Z,72.30
2022-08-08T11:18:58.690Z,72.70
2022-08-08T11:21:35.363Z,74.00
2022-08-08T11:24:05.742Z,71.00
2022-08-08T11:26:53.899Z,72.60
2022-08-08T11:29:11.415Z,73.00
2022-08-08T11:31:48.208Z,75.10
2022-08-08T11:34:23.559Z,73.00
2022-08-08T11:36:51.104Z,72.70
2022-08-08T11:39:21.177Z,73.00
2022-08-08T11:41:52.051Z,73.40
2022-08-08T11:44:28.946Z,73.10
2022-08-08T11:46:55.343Z,73.60
2022-08-08T11:49:27.749Z,70.70
2022-08-08T11:51:57.728Z,68.20
2022-08-08T11:54:38.000Z,67.70
2022-08-08T11:57:27.212Z,71.30
2022-08-08T12:00:05.854Z,69.70
2022-08-08T12:02:53.739Z,70.10
2022-08-08T12:05:38.978Z,69.60
2022-08-08T12:08:10.510Z,71.40
2022-08-08T12:10:53.281Z,69.30
2022-08-08T12:13:33.323Z,68.90
2022-08-08T12:16:09.327Z,67.00
2022-08-08T12:18:49.896Z,68.80
2022-08-08T12:21:59.245Z,70.00
2022-08-08T12:24:12.913Z,71.20
2022-08-08T12:26:58.373Z,71.70
2022-08-08T12:29:45.095Z,69.10
2022-08-08T12:32:31.318Z,69.00
2022-08-08T12:34:57.494Z,68.10
2022-08-08T12:37:40.224Z,69.20
2022-08-08T12:40:05.607Z,69.40
2022-08-08T12:42:47.850Z,70.20
2022-08-08T12:45:54.584Z,70.30
2022-08-08T12:48:04.811Z,68.80
2022-08-08T12:50:15.078Z,68.80
2022-08-08T12:52:47.754Z,68.40
2022-08-08T12:55:35.603Z,67.40
2022-08-08T12:57:49.863Z,67.20
2022-08-08T13:00:23.382Z,67.20
2022-08-08T13:02:58.165Z,67.00
2022-08-08T13:06:03.612Z,66.90
2022-08-08T13:08:03.442Z,66.80
2022-08-08T13:10:36.221Z,66.80
2022-08-08T13:13:08.211Z,67.40
2022-08-08T13:15:37.903Z,67.10
2022-08-08T13:18:13.574Z,67.30
2022-08-08T13:20:48.299Z,67.70
2022-08-08T13:23:35.250Z,66.50
2022-08-08T13:25:59.414Z,65.70
2022-08-08T13:28:26.373Z,67.30
2022-08-08T13:30:57.642Z,68.50
2022-08-08T13:33:27.228Z,68.90
2022-08-08T13:36:00.491Z,67.40
2022-08-08T13:38:31.955Z,67.70
2022-08-08T13:41:01.544Z,66.90
2022-08-08T13:43:31.618Z,66.30
2022-08-08T13:46:27.294Z,66.20
2022-08-08T13:50:32.187Z,67.10
2022-08-08T13:51:33.661Z,67.60
2022-08-08T13:54:02.031Z,67.30
2022-08-08T13:56:44.657Z,67.70
2022-08-08T13:59:07.944Z,67.40
2022-08-08T14:01:53.065Z,66.90
2022-08-08T14:04:09.202Z,66.70
2022-08-08T14:06:43.322Z,66.00
2022-08-08T14:09:24.488Z,66.90
2022-08-08T14:11:48.856Z,67.70
2022-08-08T14:14:21.231Z,68.00
2022-08-08T14:16:50.489Z,66.30
2022-08-08T14:19:54.115Z,67.70
2022-08-08T14:21:53.829Z,67.60
2022-08-08T14:24:35.822Z,67.10
2022-08-08T14:27:07.383Z,67.60
2022-08-08T14:29:39.358Z,67.30
2022-08-08T14:32:16.036Z,67.50
2022-08-08T14:34:42.086Z,67.50
2022-08-08T14:37:12.882Z,65.80
2022-08-08T14:39:48.524Z,65.10
2022-08-08T14:42:16.883Z,65.20
2022-08-08T14:44:55.308Z,65.30
2022-08-08T14:47:25.787Z,66.40
2022-08-08T14:50:10.723Z,66.60
2022-08-08T14:52:47.068Z,64.50
2022-08-08T14:55:22.194Z,65.40
2022-08-08T14:58:02.919Z,65.50
2022-08-08T15:00:20.281Z,65.10
2022-08-08T15:02:58.527Z,64.50
2022-08-08T15:05:42.804Z,66.80
2022-08-08T15:07:59.925Z,66.00
2022-08-08T15:10:28.905Z,63.90
2022-08-08T15:12:58.608Z,63.80
2022-08-08T15:16:01.669Z,63.00
2022-08-08T15:17:59.714Z,63.00
2022-08-08T15:20:29.362Z,62.50
2022-08-08T15:23:01.673Z,63.30
2022-08-08T15:25:33.079Z,62.20
2022-08-08T15:28:32.390Z,63.10
2022-08-08T15:30:34.240Z,63.20
2022-08-08T15:33:03.806Z,61.00
2022-08-08T15:35:39.083Z,60.00
2022-08-08T15:38:12.462Z,60.20
2022-08-08T15:40:38.604Z,61.30
2022-08-08T15:43:35.383Z,61.00
2022-08-08T15:45:41.785Z,60.20
2022-08-08T15:48:16.028Z,62.40
2022-08-08T15:51:06.407Z,60.80
2022-08-08T15:53:49.565Z,59.90
2022-08-08T15:56:12.308Z,58.90
2022-08-08T15:58:38.999Z,57.10
2022-08-08T16:01:09.582Z,56.90
2022-08-08T16:03:39.211Z,58.50
2022-08-08T16:06:13.626Z,59.10
2022-08-08T16:08:40.363Z,58.40
2022-08-08T16:13:11.270Z,60.10
2022-08-08T16:13:43.817Z,59.70
2022-08-08T16:16:18.564Z,61.50
2022-08-08T16:18:57.481Z,61.80
2022-08-08T16:21:25.876Z,61.10
2022-08-08T16:23:49.077Z,61.00
2022-08-08T16:26:22.992Z,61.10
2022-08-08T16:28:51.382Z,60.60
2022-08-08T16:31:21.681Z,60.10
2022-08-08T16:33:58.221Z,59.90
2022-08-08T16:36:27.980Z,59.40
2022-08-08T16:38:56.746Z,60.20
2022-08-08T16:41:26.326Z,60.30
2022-08-08T16:43:57.742Z,60.60
2022-08-08T16:46:44.109Z,60.30
2022-08-08T16:49:01.314Z,60.20
2022-08-08T16:54:59.759Z,61.00
2022-08-08T16:55:00.531Z,59.70
2022-08-08T16:56:34.946Z,60.50
2022-08-08T16:59:05.325Z,60.40
2022-08-08T17:01:39.643Z,61.30
2022-08-08T17:04:07.476Z,61.80
2022-08-08T17:06:43.694Z,61.80
2022-08-08T17:09:15.236Z,60.60
2022-08-08T17:11:48.764Z,60.50
2022-08-08T17:14:17.830Z,59.20
2022-08-08T17:16:41.408Z,59.40
2022-08-08T17:19:12.527Z,59.60
2022-08-08T17:21:42.833Z,60.50
2022-08-08T17:24:27.451Z,61.60
2022-08-08T17:26:43.793Z,61.70
2022-08-08T17:29:15.127Z,62.40
2022-08-08T17:31:46.843Z,62.60
2022-08-08T17:34:36.562Z,61.70
2022-08-08T17:37:03.320Z,62.20
2022-08-08T17:39:45.806Z,62.10
2022-08-08T17:41:58.591Z,62.60
2022-08-08T17:44:21.206Z,63.10
2022-08-08T17:46:54.006Z,63.10
2022-08-08T17:49:28.766Z,63.50
2022-08-08T17:51:56.711Z,64.00
2022-08-08T17:54:29.206Z,63.60
2022-08-08T17:56:59.057Z,64.00
2022-08-08T17:59:30.440Z,64.60
2022-08-08T18:02:06.537Z,64.10
2022-08-08T18:04:42.558Z,64.10
2022-08-08T18:08:01.929Z,64.60
2022-08-08T18:09:43.356Z,64.60
2022-08-08T18:12:14.410Z,64.20
2022-08-08T18:14:47.250Z,64.70
2022-08-08T18:17:28.592Z,64.60
2022-08-08T18:20:44.383Z,65.00
2022-08-08T18:22:49.936Z,65.40
2022-08-08T18:24:55.749Z,65.30
2022-08-08T18:27:25.543Z,66.10
2022-08-08T18:29:56.576Z,65.80
2022-08-08T18:32:26.111Z,66.30
2022-08-08T18:34:57.544Z,66.90
2022-08-08T18:37:34.689Z,66.70
2022-08-08T18:39:58.425Z,67.00
2022-08-08T18:42:29.924Z,68.00
2022-08-08T18:44:59.427Z,67.80
2022-08-08T18:47:31.408Z,67.80
2022-08-08T18:50:02.730Z,67.80
2022-08-08T18:52:36.850Z,68.40
2022-08-08T18:55:10.271Z,68.50
2022-08-08T18:57:45.031Z,68.70
2022-08-08T19:00:20.530Z,69.00
2022-08-08T19:02:55.825Z,69.20
2022-08-08T19:05:31.935Z,69.30
2022-08-08T19:07:56.741Z,69.90
2022-08-08T19:10:26.559Z,70.30
2022-08-08T19:12:56.096Z,70.40
2022-08-08T19:15:33.940Z,71.00
2022-08-08T19:18:33.391Z,71.20
2022-08-08T19:20:27.857Z,71.50
2022-08-08T19:22:57.350Z,71.60
2022-08-08T19:26:01.731Z,72.50
2022-08-08T19:28:00.017Z,72.70
2022-08-08T19:30:29.964Z,73.30
2022-08-08T19:33:00.640Z,73.70
2022-08-08T19:35:45.288Z,74.30
2022-08-08T19:38:02.583Z,75.00
2022-08-08T19:40:32.994Z,75.50
2022-08-08T19:43:02.483Z,75.80
2022-08-08T19:45:58.861Z,76.20
2022-08-08T19:48:03.310Z,76.00
2022-08-08T19:50:33.494Z,76.30
2022-08-08T19:53:03.143Z,76.50
2022-08-08T19:55:35.991Z,76.70
2022-08-08T19:58:07.440Z,77.40
2022-08-08T20:00:37.835Z,77.60
2022-08-08T20:03:15.134Z,78.20
2022-08-08T20:06:15.656Z,78.50
2022-08-08T20:08:29.288Z,78.70
2022-08-08T20:10:42.957Z,79.80
2022-08-08T20:14:10.355Z,78.90
2022-08-08T20:15:52.674Z,79.40
2022-08-08T20:18:15.511Z,79.90
2022-08-08T20:20:45.875Z,80.60
2022-08-08T20:23:15.977Z,80.50
2022-08-08T20:25:46.198Z,81.00
2022-08-08T20:28:19.996Z,80.60
2022-08-08T20:30:55.721Z,80.60
2022-08-08T20:35:57.497Z,81.80
2022-08-08T20:38:19.922Z,81.30
2022-08-08T20:40:52.406Z,81.40
2022-08-08T20:43:43.511Z,81.10
2022-08-08T20:45:57.852Z,81.50
2022-08-08T20:48:26.140Z,81.30
2022-08-08T20:50:56.782Z,81.50
2022-08-08T20:53:59.233Z,81.90
2022-08-08T20:55:59.599Z,83.80
2022-08-08T20:58:30.710Z,83.70
2022-08-08T21:01:00.624Z,84.00
2022-08-08T21:03:30.333Z,83.70
2022-08-08T21:05:59.932Z,83.50
2022-08-08T21:08:36.235Z,83.30
2022-08-08T21:11:00.853Z,83.10
2022-08-08T21:13:40.671Z,83.00
2022-08-08T21:16:06.030Z,83.20
2022-08-08T21:18:32.617Z,83.70
2022-08-08T21:21:02.867Z,83.60
2022-08-08T21:24:02.568Z,83.50
2022-08-08T21:26:03.683Z,84.40
2022-08-08T21:28:33.598Z,84.60
2022-08-08T21:31:22.569Z,84.90
2022-08-08T21:33:38.456Z,84.70
2022-08-08T21:36:21.019Z,85.10
2022-08-08T21:38:52.477Z,85.30
2022-08-08T21:41:38.212Z,85.70
2022-08-08T21:43:54.065Z,85.40
2022-08-08T21:48:05.598Z,85.00
2022-08-08T21:48:57.243Z,84.60
2022-08-08T21:54:16.857Z,84.60
2022-08-08T21:54:34.598Z,84.70
2022-08-08T21:56:40.131Z,85.10
2022-08-08T21:59:02.561Z,85.20
2022-08-08T22:01:40.428Z,85.60
2022-08-08T22:04:06.680Z,85.50
2022-08-08T22:06:37.866Z,86.50
2022-08-08T22:09:08.445Z,85.40
2022-08-08T22:11:59.441Z,85.90
2022-08-08T22:14:10.338Z,86.70
2022-08-08T22:16:41.591Z,86.00
2022-08-08T22:19:16.338Z,86.80
2022-08-08T22:21:42.099Z,86.70
2022-08-08T22:24:11.803Z,86.10
2022-08-08T22:27:01.435Z,85.70
2022-08-08T22:29:57.251Z,85.90
2022-08-08T22:32:02.324Z,85.80
2022-08-08T22:34:15.620Z,86.20
2022-08-08T22:36:45.193Z,85.80
2022-08-08T22:39:19.151Z,85.60
2022-08-08T22:41:49.296Z,85.60
2022-08-08T22:44:18.396Z,86.00
2022-08-08T22:46:47.846Z,86.80
2022-08-08T22:49:20.230Z,87.30
2022-08-08T22:51:49.888Z,87.30
2022-08-08T22:54:31.104Z,88.00
2022-08-08T22:56:52.418Z,88.40
2022-08-08T22:59:21.995Z,89.00
2022-08-08T23:02:03.002Z,89.10
2022-08-08T23:04:31.927Z,89.90
2022-08-08T23:07:03.046Z,90.00
2022-08-08T23:09:30.608Z,89.80
2022-08-08T23:12:28.101Z,89.40
2022-08-08T23:14:28.170Z,89.40
2022-08-08T23:16:59.646Z,90.20
2022-08-08T23:19:30.795Z,89.40
2022-08-08T23:22:06.785Z,90.00
2022-08-08T23:24:41.241Z,90.40
2022-08-08T23:27:17.410Z,90.10
2022-08-08T23:29:55.104Z,90.10
2022-08-08T23:32:17.151Z,90.10
2022-08-08T23:34:49.730Z,90.20
2022-08-08T23:37:24.473Z,90.70
2022-08-08T23:39:57.828Z,90.80
2022-08-08T23:42:21.841Z,90.70
2022-08-08T23:44:52.107Z,91.40
2022-08-08T23:49:08.765Z,91.50
2022-08-08T23:50:01.044Z,91.40
2022-08-08T23:52:27.597Z,91.70
2022-08-08T23:55:07.450Z,92.20
2022-08-08T23:57:39.094Z,92.20
